地図

経路データ

SID SEASON NUMBER BASIN SUBBASIN NAME ISO_TIME NATURE LAT LON WMO_WIND WMO_PRES WMO_AGENCY TRACK_TYPE DIST2LAND LANDFALL IFLAG USA_AGENCY USA_ATCF_ID USA_LAT USA_LON USA_RECORD USA_STATUS USA_WIND USA_PRES USA_SSHS USA_R34_NE USA_R34_SE USA_R34_SW USA_R34_NW USA_R50_NE USA_R50_SE USA_R50_SW USA_R50_NW USA_R64_NE USA_R64_SE USA_R64_SW USA_R64_NW USA_POCI USA_ROCI USA_RMW USA_EYE TOKYO_LAT TOKYO_LON TOKYO_GRADE TOKYO_WIND TOKYO_PRES TOKYO_R50_DIR TOKYO_R50_LONG TOKYO_R50_SHORT TOKYO_R30_DIR TOKYO_R30_LONG TOKYO_R30_SHORT TOKYO_LAND CMA_LAT CMA_LON CMA_CAT CMA_WIND CMA_PRES HKO_LAT HKO_LON HKO_CAT HKO_WIND HKO_PRES NEWDELHI_LAT NEWDELHI_LON NEWDELHI_GRADE NEWDELHI_WIND NEWDELHI_PRES NEWDELHI_CI NEWDELHI_DP NEWDELHI_POCI REUNION_LAT REUNION_LON REUNION_TYPE REUNION_WIND REUNION_PRES REUNION_TNUM REUNION_CI REUNION_RMW REUNION_R34_NE REUNION_R34_SE REUNION_R34_SW REUNION_R34_NW REUNION_R50_NE REUNION_R50_SE REUNION_R50_SW REUNION_R50_NW REUNION_R64_NE REUNION_R64_SE REUNION_R64_SW REUNION_R64_NW BOM_LAT BOM_LON BOM_TYPE BOM_WIND BOM_PRES BOM_TNUM BOM_CI BOM_RMW BOM_R34_NE BOM_R34_SE BOM_R34_SW BOM_R34_NW BOM_R50_NE BOM_R50_SE BOM_R50_SW BOM_R50_NW BOM_R64_NE BOM_R64_SE BOM_R64_SW BOM_R64_NW BOM_ROCI BOM_POCI BOM_EYE BOM_POS_METHOD BOM_PRES_METHOD NADI_LAT NADI_LON NADI_CAT NADI_WIND NADI_PRES WELLINGTON_LAT WELLINGTON_LON WELLINGTON_WIND WELLINGTON_PRES DS824_LAT DS824_LON DS824_STAGE DS824_WIND DS824_PRES TD9636_LAT TD9636_LON TD9636_STAGE TD9636_WIND TD9636_PRES TD9635_LAT TD9635_LON TD9635_WIND TD9635_PRES TD9635_ROCI NEUMANN_LAT NEUMANN_LON NEUMANN_CLASS NEUMANN_WIND NEUMANN_PRES MLC_LAT MLC_LON MLC_CLASS MLC_WIND MLC_PRES USA_GUST BOM_GUST BOM_GUST_PER REUNION_GUST REUNION_GUST_PER USA_SEAHGT USA_SEARAD_NE USA_SEARAD_SE USA_SEARAD_SW USA_SEARAD_NW STORM_SPEED STORM_DIR
1960237N20090 1960 60 NI BB NOT_NAMED 1960-08-23 18:00:00 TS 19.9000 89.7000 main 200 200 O________O____ jtwc_io IO061960 19.9000 89.7000 -1 19.9000 89.7000 TC 1 43
1960237N20090 1960 60 NI BB NOT_NAMED 1960-08-23 21:00:00 TS 19.9500 89.7450 main 200 178 P________P____ IO061960 19.9500 89.7450 -1 19.9500 89.7450 TC 2 352
1960237N20090 1960 60 NI BB NOT_NAMED 1960-08-24 00:00:00 TS 20.1000 89.7000 main 178 140 O________O____ jtwc_io IO061960 20.1000 89.7000 -1 20.1000 89.7000 TC 25 5 334
1960237N20090 1960 60 NI BB NOT_NAMED 1960-08-24 03:00:00 TS 20.4222 89.5021 main 140 78 P________PO___ IO061960 20.4250 89.5024 -1 20.4250 89.5024 TC 25 20.4000 89.5000 1 10 330
1960237N20090 1960 60 NI BB NOT_NAMED 1960-08-24 06:00:00 TS 20.9201 89.1917 main 78 11 O________OP___ jtwc_io IO061960 20.9000 89.2000 -1 20.9000 89.2000 TC 25 21.0003 89.1583 1 13 331
1960237N20090 1960 60 NI BB NOT_NAMED 1960-08-24 09:00:00 TS 21.5163 88.8642 main 11 0 P________PP___ IO061960 21.4924 88.8875 -1 21.4924 88.8875 TC 25 21.5803 88.8022 1 14 331
1960237N20090 1960 60 NI BB NOT_NAMED 1960-08-24 12:00:00 TS 22.1067 88.4733 main 0 0 O________OP___ jtwc_io IO061960 22.1000 88.5000 -1 22.1000 88.5000 TC 25 22.1201 88.4199 1 13 324
1960237N20090 1960 60 NI BB NOT_NAMED 1960-08-24 15:00:00 TS 22.5967 88.0150 main 0 0 P________PO___ IO061960 22.5950 88.0225 -1 22.5950 88.0225 TC 25 22.6000 88.0000 1 13 315
1960237N20090 1960 60 NI BB NOT_NAMED 1960-08-24 18:00:00 TS 23.0020 87.5117 main 0 0 O________OP___ jtwc_io IO061960 23.0000 87.5000 -1 23.0000 87.5000 TC 25 23.0059 87.5352 1 12 309
1960237N20090 1960 60 NI BB NOT_NAMED 1960-08-24 21:00:00 TS 23.3357 87.0120 main 0 0 P________PP___ IO061960 23.3298 86.9996 -1 23.3298 86.9996 TC 25 23.3474 87.0366 1 11 304
1960237N20090 1960 60 NI BB NOT_NAMED 1960-08-25 00:00:00 TS 23.6134 86.5066 main 0 0 O________OP___ jtwc_io IO061960 23.6000 86.5000 -1 23.6000 86.5000 TC 25 23.6402 86.5197 1 11 300
1960237N20090 1960 60 NI BB NOT_NAMED 1960-08-25 03:00:00 TS 23.8716 85.9998 main 0 0 P________PO___ IO061960 23.8573 85.9997 -1 23.8573 85.9997 TC 25 23.9000 86.0000 1 11 299
1960237N20090 1960 60 NI BB NOT_NAMED 1960-08-25 06:00:00 TS 24.1191 85.5010 main 0 0 O________OP___ jtwc_io IO061960 24.1000 85.5000 -1 24.1000 85.5000 TC 25 24.1572 85.5031 1 10 299
1960237N20090 1960 60 NI BB NOT_NAMED 1960-08-25 09:00:00 TS 24.3671 85.0020 main 0 0 P________PP___ IO061960 24.3573 84.9999 -1 24.3573 84.9999 TC 25 24.3867 85.0062 1 10 298
1960237N20090 1960 60 NI BB NOT_NAMED 1960-08-25 12:00:00 TS 24.5993 84.5021 main 0 0 O________OP___ jtwc_io IO061960 24.6000 84.5000 -1 24.6000 84.5000 TC 25 24.5978 84.5063 1 10 296
1960237N20090 1960 60 NI BB NOT_NAMED 1960-08-25 15:00:00 TS 24.8048 84.0048 main 0 0 P________PO___ IO061960 24.8073 84.0072 -1 24.8073 84.0072 TC 25 24.8000 84.0000 1 10 294
1960237N20090 1960 60 NI BB NOT_NAMED 1960-08-25 18:00:00 TS 25.0024 83.4858 main 0 0 O________OP___ jtwc_io IO061960 25.0000 83.5000 -1 25.0000 83.5000 TC 25 25.0073 83.4576 1 10 292
1960237N20090 1960 60 NI BB NOT_NAMED 1960-08-25 21:00:00 TS 25.2026 82.9373 main 0 0 P________PP___ IO061960 25.2000 82.9499 -1 25.2000 82.9499 TC 25 25.2078 82.9122 1 11 292
1960237N20090 1960 60 NI BB NOT_NAMED 1960-08-26 00:00:00 TS 25.4014 82.3952 main 0 0 O________OP___ jtwc_io IO061960 25.4000 82.4000 -1 25.4000 82.4000 TC 25 25.4043 82.3857 1 10 293
1960237N20090 1960 60 NI BB NOT_NAMED 1960-08-26 03:00:00 TS 25.6000 81.8800 main 0 0 P________PO___ IO061960 25.6000 81.8699 -1 25.6000 81.8699 TC 25 25.6000 81.9000 1 10 294
1960237N20090 1960 60 NI BB NOT_NAMED 1960-08-26 06:00:00 TS 25.8039 81.4137 main 0 0 O________OP___ jtwc_io IO061960 25.8000 81.4000 -1 25.8000 81.4000 TC 25 25.8118 81.4412 1 9 298
1960237N20090 1960 60 NI BB NOT_NAMED 1960-08-26 09:00:00 TS 26.0123 81.0183 main 0 0 P________PP___ IO061960 26.0073 81.0124 -1 26.0073 81.0124 TC 25 26.0222 81.0301 1 8 302
1960237N20090 1960 60 NI BB NOT_NAMED 1960-08-26 12:00:00 TS 26.2071 80.6930 main 0 0 O________OP___ jtwc_io IO061960 26.2000 80.7000 -1 26.2000 80.7000 TC 25 26.2214 80.6789 1 7 303
1960237N20090 1960 60 NI BB NOT_NAMED 1960-08-26 15:00:00 TS 26.3717 80.4033 main 0 0 P________PO___ IO061960 26.3575 80.4049 -1 26.3575 80.4049 TC 25 26.4000 80.4000 1 5 306
1960237N20090 1960 60 NI BB NOT_NAMED 1960-08-26 18:00:00 TS 26.5150 80.2250 main 0 0 O________OP___ jtwc_io IO061960 26.5000 80.2000 -1 26.5000 80.2000 TC 25 26.5451 80.2749 1 4 325
1960237N20090 1960 60 NI BB NOT_NAMED 1960-08-26 21:00:00 TS 26.6616 80.1792 main 0 0 P________PP___ IO061960 26.6573 80.1647 -1 26.6573 80.1647 TC 25 26.6702 80.2081 1 3 340
1960237N20090 1960 60 NI BB NOT_NAMED 1960-08-27 00:00:00 TS 26.7951 80.1041 main 0 0 O________OP___ jtwc_io IO061960 26.8000 80.1000 -1 26.8000 80.1000 TC 25 26.7853 80.1124 1 4 310
1960237N20090 1960 60 NI BB NOT_NAMED 1960-08-27 03:00:00 TS 26.8998 79.8599 main 0 0 P________PO___ IO061960 26.8997 79.8398 -1 26.8997 79.8398 TC 25 26.9000 79.9000 1 7 289
1960237N20090 1960 60 NI BB NOT_NAMED 1960-08-27 06:00:00 TS 27.0091 79.4035 main 0 0 O________OP___ jtwc_io IO061960 27.0000 79.4000 -1 27.0000 79.4000 TC 25 27.0272 79.4104 1 10 285
1960237N20090 1960 60 NI BB NOT_NAMED 1960-08-27 09:00:00 TS 27.1515 78.7780 main 0 0 P________PP___ IO061960 27.1506 78.7653 -1 27.1506 78.7653 TC 25 27.1532 78.8034 1 12 284
1960237N20090 1960 60 NI BB NOT_NAMED 1960-08-27 12:00:00 TS 27.2924 78.1232 main 0 0 O________OP___ jtwc_io IO061960 27.3000 78.1000 -1 27.3000 78.1000 TC 25 27.2772 78.1696 1 11 283
1960237N20090 1960 60 NI AS NOT_NAMED 1960-08-27 15:00:00 TS 27.3998 77.5982 main 0 0 P________PO___ IO061960 27.3997 77.5972 -1 27.3997 77.5972 TC 25 27.4000 77.6000 1 9 285
1960237N20090 1960 60 NI AS NOT_NAMED 1960-08-27 18:00:00 TS 27.5093 77.1856 main 0 0 O________OP___ jtwc_io IO061960 27.5000 77.2000 -1 27.5000 77.2000 TC 25 27.5233 77.1641 1 7 290
1960237N20090 1960 60 NI AS NOT_NAMED 1960-08-27 21:00:00 TS 27.6420 76.8650 main 0 0 P________PP___ IO061960 27.6376 76.8802 -1 27.6376 76.8802 TC 25 27.6479 76.8447 1 6 298
1960237N20090 1960 60 NI AS NOT_NAMED 1960-08-28 00:00:00 TS 27.7868 76.6015 main 0 0 O________OP___ jtwc_io IO061960 27.8000 76.6000 -1 27.8000 76.6000 TC 25 27.7736 76.6030 1 5 302
1960237N20090 1960 60 NI AS NOT_NAMED 1960-08-28 03:00:00 NR 27.9000 76.4000 main 0 __________O___ IO061960 -1 TC 27.9000 76.4000 1 4 303

IBTrACS Databaseについて

本データベースは、米国NOAAが公開する1842年以降の世界の熱帯低気圧のベストトラックデータアーカイブInternational Best Track Archive for Climate Stewardship (IBTrACS)を、ウェブで閲覧しやすい形式に変換したものです。

最終更新日:2021-10-21